sensor_id;sensor_type;location;lat;lon;timestamp;temperature;humidity
59007;DHT22;44792;52.760;6.726;2023-02-13T00:02:20;7.60;99.90
59007;DHT22;44792;52.760;6.726;2023-02-13T00:04:46;7.60;99.90
59007;DHT22;44792;52.760;6.726;2023-02-13T00:07:11;7.60;99.90
59007;DHT22;44792;52.760;6.726;2023-02-13T00:09:37;7.50;99.90
59007;DHT22;44792;52.760;6.726;2023-02-13T00:12:04;7.50;99.90
59007;DHT22;44792;52.760;6.726;2023-02-13T00:14:30;7.50;99.90
59007;DHT22;44792;52.760;6.726;2023-02-13T00:16:55;7.50;99.90
59007;DHT22;44792;52.760;6.726;2023-02-13T00:19:21;7.50;99.90
59007;DHT22;44792;52.760;6.726;2023-02-13T00:21:46;7.40;99.90
59007;DHT22;44792;52.760;6.726;2023-02-13T00:24:15;7.40;99.90
59007;DHT22;44792;52.760;6.726;2023-02-13T00:26:41;7.40;99.90
59007;DHT22;44792;52.760;6.726;2023-02-13T00:29:06;7.50;99.90
59007;DHT22;44792;52.760;6.726;2023-02-13T00:31:35;7.40;99.90
59007;DHT22;44792;52.760;6.726;2023-02-13T00:34:00;7.50;99.90
59007;DHT22;44792;52.760;6.726;2023-02-13T00:36:26;7.50;99.90
59007;DHT22;44792;52.760;6.726;2023-02-13T00:38:53;7.50;99.90
59007;DHT22;44792;52.760;6.726;2023-02-13T00:41:20;7.50;99.90
59007;DHT22;44792;52.760;6.726;2023-02-13T00:43:46;7.50;99.90
59007;DHT22;44792;52.760;6.726;2023-02-13T00:46:12;7.50;99.90
59007;DHT22;44792;52.760;6.726;2023-02-13T00:48:38;7.50;99.90
59007;DHT22;44792;52.760;6.726;2023-02-13T00:51:05;7.50;99.90
59007;DHT22;44792;52.760;6.726;2023-02-13T00:53:31;7.50;99.90
59007;DHT22;44792;52.760;6.726;2023-02-13T00:55:58;7.50;99.90
59007;DHT22;44792;52.760;6.726;2023-02-13T00:58:23;7.40;99.90
59007;DHT22;44792;52.760;6.726;2023-02-13T01:00:49;7.40;99.90
59007;DHT22;44792;52.760;6.726;2023-02-13T01:03:17;7.50;99.90
59007;DHT22;44792;52.760;6.726;2023-02-13T01:05:43;7.50;99.90
59007;DHT22;44792;52.760;6.726;2023-02-13T01:08:10;7.50;99.90
59007;DHT22;44792;52.760;6.726;2023-02-13T01:10:37;7.50;99.90
59007;DHT22;44792;52.760;6.726;2023-02-13T01:13:03;7.50;99.90
59007;DHT22;44792;52.760;6.726;2023-02-13T01:15:28;7.40;99.90
59007;DHT22;44792;52.760;6.726;2023-02-13T01:17:54;7.50;99.90
59007;DHT22;44792;52.760;6.726;2023-02-13T01:20:23;7.50;99.90
59007;DHT22;44792;52.760;6.726;2023-02-13T01:22:49;7.50;99.90
59007;DHT22;44792;52.760;6.726;2023-02-13T01:25:15;7.40;99.90
59007;DHT22;44792;52.760;6.726;2023-02-13T01:27:41;7.40;99.90
59007;DHT22;44792;52.760;6.726;2023-02-13T01:30:08;7.40;99.90
59007;DHT22;44792;52.760;6.726;2023-02-13T01:32:38;7.40;99.90
59007;DHT22;44792;52.760;6.726;2023-02-13T01:35:05;7.40;99.90
59007;DHT22;44792;52.760;6.726;2023-02-13T01:37:30;7.40;99.90
59007;DHT22;44792;52.760;6.726;2023-02-13T01:39:56;7.40;99.90
59007;DHT22;44792;52.760;6.726;2023-02-13T01:42:32;7.40;99.90
59007;DHT22;44792;52.760;6.726;2023-02-13T01:47:44;7.40;99.90
59007;DHT22;44792;52.760;6.726;2023-02-13T01:50:33;7.40;99.90
59007;DHT22;44792;52.760;6.726;2023-02-13T01:55:30;7.40;99.90
59007;DHT22;44792;52.760;6.726;2023-02-13T01:58:07;7.40;99.90
59007;DHT22;44792;52.760;6.726;2023-02-13T02:00:34;7.40;99.90
59007;DHT22;44792;52.760;6.726;2023-02-13T02:03:06;7.40;99.90
59007;DHT22;44792;52.760;6.726;2023-02-13T02:05:35;7.40;99.90
59007;DHT22;44792;52.760;6.726;2023-02-13T02:08:03;7.40;99.90
59007;DHT22;44792;52.760;6.726;2023-02-13T02:10:30;7.40;99.90
59007;DHT22;44792;52.760;6.726;2023-02-13T02:13:18;7.40;99.90
59007;DHT22;44792;52.760;6.726;2023-02-13T02:15:44;7.40;99.90
59007;DHT22;44792;52.760;6.726;2023-02-13T02:18:18;7.30;99.90
59007;DHT22;44792;52.760;6.726;2023-02-13T02:21:19;7.30;99.90
59007;DHT22;44792;52.760;6.726;2023-02-13T02:27:32;7.40;99.90
59007;DHT22;44792;52.760;6.726;2023-02-13T02:35:50;7.40;99.90
59007;DHT22;44792;52.760;6.726;2023-02-13T02:38:34;7.30;99.90
59007;DHT22;44792;52.760;6.726;2023-02-13T02:41:06;7.30;99.90
59007;DHT22;44792;52.760;6.726;2023-02-13T02:44:03;7.30;99.90
59007;DHT22;44792;52.760;6.726;2023-02-13T02:46:37;7.30;99.90
59007;DHT22;44792;52.760;6.726;2023-02-13T02:49:24;7.30;99.90
59007;DHT22;44792;52.760;6.726;2023-02-13T02:52:18;7.30;99.90
59007;DHT22;44792;52.760;6.726;2023-02-13T02:55:01;7.30;99.90
59007;DHT22;44792;52.760;6.726;2023-02-13T02:57:36;7.30;99.90
59007;DHT22;44792;52.760;6.726;2023-02-13T03:00:24;7.30;99.90
59007;DHT22;44792;52.760;6.726;2023-02-13T03:03:21;7.30;99.90
59007;DHT22;44792;52.760;6.726;2023-02-13T03:06:17;7.30;99.90
59007;DHT22;44792;52.760;6.726;2023-02-13T03:08:53;7.30;99.90
59007;DHT22;44792;52.760;6.726;2023-02-13T03:11:40;7.20;99.90
59007;DHT22;44792;52.760;6.726;2023-02-13T03:14:26;7.20;99.90
59007;DHT22;44792;52.760;6.726;2023-02-13T03:16:52;7.20;99.90
59007;DHT22;44792;52.760;6.726;2023-02-13T03:19:42;7.20;99.90
59007;DHT22;44792;52.760;6.726;2023-02-13T03:25:34;7.30;99.90
59007;DHT22;44792;52.760;6.726;2023-02-13T03:33:29;7.20;99.90
59007;DHT22;44792;52.760;6.726;2023-02-13T03:39:29;7.30;99.90
59007;DHT22;44792;52.760;6.726;2023-02-13T03:42:04;7.30;99.90
59007;DHT22;44792;52.760;6.726;2023-02-13T03:44:37;7.30;99.90
59007;DHT22;44792;52.760;6.726;2023-02-13T03:47:05;7.30;99.90
59007;DHT22;44792;52.760;6.726;2023-02-13T03:49:35;7.30;99.90
59007;DHT22;44792;52.760;6.726;2023-02-13T03:55:15;7.20;99.90
59007;DHT22;44792;52.760;6.726;2023-02-13T03:58:08;7.20;99.90
59007;DHT22;44792;52.760;6.726;2023-02-13T04:00:57;7.20;99.90
59007;DHT22;44792;52.760;6.726;2023-02-13T04:06:29;7.20;99.90
59007;DHT22;44792;52.760;6.726;2023-02-13T04:08:55;7.20;99.90
59007;DHT22;44792;52.760;6.726;2023-02-13T04:11:29;7.30;99.90
59007;DHT22;44792;52.760;6.726;2023-02-13T04:14:00;7.30;99.90
59007;DHT22;44792;52.760;6.726;2023-02-13T04:16:40;7.30;99.90
59007;DHT22;44792;52.760;6.726;2023-02-13T04:19:07;7.30;99.90
59007;DHT22;44792;52.760;6.726;2023-02-13T04:21:35;7.20;99.90
59007;DHT22;44792;52.760;6.726;2023-02-13T04:24:01;7.30;99.90
59007;DHT22;44792;52.760;6.726;2023-02-13T04:26:32;7.30;99.90
59007;DHT22;44792;52.760;6.726;2023-02-13T04:28:59;7.20;99.90
59007;DHT22;44792;52.760;6.726;2023-02-13T04:31:25;7.20;99.90
59007;DHT22;44792;52.760;6.726;2023-02-13T04:33:50;7.30;99.90
59007;DHT22;44792;52.760;6.726;2023-02-13T04:36:16;7.20;99.90
59007;DHT22;44792;52.760;6.726;2023-02-13T04:38:41;7.20;99.90
59007;DHT22;44792;52.760;6.726;2023-02-13T04:41:07;7.20;99.90
59007;DHT22;44792;52.760;6.726;2023-02-13T04:43:32;7.20;99.90
59007;DHT22;44792;52.760;6.726;2023-02-13T04:45:58;7.20;99.90
59007;DHT22;44792;52.760;6.726;2023-02-13T04:48:24;7.20;99.90
59007;DHT22;44792;52.760;6.726;2023-02-13T04:50:49;7.20;99.90
59007;DHT22;44792;52.760;6.726;2023-02-13T04:53:15;7.20;99.90
59007;DHT22;44792;52.760;6.726;2023-02-13T04:55:40;7.10;99.90
59007;DHT22;44792;52.760;6.726;2023-02-13T04:58:06;7.20;99.90
59007;DHT22;44792;52.760;6.726;2023-02-13T05:00:31;7.10;99.90
59007;DHT22;44792;52.760;6.726;2023-02-13T05:03:07;7.20;99.90
59007;DHT22;44792;52.760;6.726;2023-02-13T05:05:33;7.10;99.90
59007;DHT22;44792;52.760;6.726;2023-02-13T05:07:59;7.10;99.90
59007;DHT22;44792;52.760;6.726;2023-02-13T05:10:25;7.10;99.90
59007;DHT22;44792;52.760;6.726;2023-02-13T05:12:51;7.10;99.90
59007;DHT22;44792;52.760;6.726;2023-02-13T05:15:16;7.10;99.90
59007;DHT22;44792;52.760;6.726;2023-02-13T05:17:43;7.10;99.90
59007;DHT22;44792;52.760;6.726;2023-02-13T05:20:09;7.10;99.90
59007;DHT22;44792;52.760;6.726;2023-02-13T05:22:35;7.10;99.90
59007;DHT22;44792;52.760;6.726;2023-02-13T05:25:20;7.10;99.90
59007;DHT22;44792;52.760;6.726;2023-02-13T05:27:45;7.10;99.90
59007;DHT22;44792;52.760;6.726;2023-02-13T05:30:11;7.10;99.90
59007;DHT22;44792;52.760;6.726;2023-02-13T05:32:37;7.10;99.90
59007;DHT22;44792;52.760;6.726;2023-02-13T05:35:04;7.10;99.90
59007;DHT22;44792;52.760;6.726;2023-02-13T05:37:30;7.20;99.90
59007;DHT22;44792;52.760;6.726;2023-02-13T05:39:56;7.10;99.90
59007;DHT22;44792;52.760;6.726;2023-02-13T05:42:22;7.10;99.90
59007;DHT22;44792;52.760;6.726;2023-02-13T05:44:47;7.10;99.90
59007;DHT22;44792;52.760;6.726;2023-02-13T05:47:13;7.10;99.90
59007;DHT22;44792;52.760;6.726;2023-02-13T05:49:38;7.10;99.90
59007;DHT22;44792;52.760;6.726;2023-02-13T05:52:04;7.00;99.90
59007;DHT22;44792;52.760;6.726;2023-02-13T05:54:29;7.10;99.90
59007;DHT22;44792;52.760;6.726;2023-02-13T05:56:55;7.10;99.90
59007;DHT22;44792;52.760;6.726;2023-02-13T05:59:21;7.10;99.90
59007;DHT22;44792;52.760;6.726;2023-02-13T06:01:46;7.00;99.90
59007;DHT22;44792;52.760;6.726;2023-02-13T06:04:12;7.00;99.90
59007;DHT22;44792;52.760;6.726;2023-02-13T06:06:37;7.10;99.90
59007;DHT22;44792;52.760;6.726;2023-02-13T06:09:03;7.10;99.90
59007;DHT22;44792;52.760;6.726;2023-02-13T06:11:28;7.10;99.90
59007;DHT22;44792;52.760;6.726;2023-02-13T06:13:54;7.10;99.90
59007;DHT22;44792;52.760;6.726;2023-02-13T06:16:20;7.10;99.90
59007;DHT22;44792;52.760;6.726;2023-02-13T06:18:46;7.10;99.90
59007;DHT22;44792;52.760;6.726;2023-02-13T06:21:12;7.10;99.90
59007;DHT22;44792;52.760;6.726;2023-02-13T06:23:37;7.10;99.90
59007;DHT22;44792;52.760;6.726;2023-02-13T06:26:04;7.10;99.90
59007;DHT22;44792;52.760;6.726;2023-02-13T06:28:30;7.00;99.90
59007;DHT22;44792;52.760;6.726;2023-02-13T06:30:56;7.00;99.90
59007;DHT22;44792;52.760;6.726;2023-02-13T06:33:21;7.00;99.90
59007;DHT22;44792;52.760;6.726;2023-02-13T06:35:47;7.00;99.90
59007;DHT22;44792;52.760;6.726;2023-02-13T06:38:12;7.00;99.90
59007;DHT22;44792;52.760;6.726;2023-02-13T06:40:38;7.00;99.90
59007;DHT22;44792;52.760;6.726;2023-02-13T06:43:04;6.90;99.90
59007;DHT22;44792;52.760;6.726;2023-02-13T06:45:29;6.90;99.90
59007;DHT22;44792;52.760;6.726;2023-02-13T06:47:55;6.90;99.90
59007;DHT22;44792;52.760;6.726;2023-02-13T06:50:20;7.00;99.90
59007;DHT22;44792;52.760;6.726;2023-02-13T06:52:48;7.00;99.90
59007;DHT22;44792;52.760;6.726;2023-02-13T06:55:14;7.00;99.90
59007;DHT22;44792;52.760;6.726;2023-02-13T06:57:41;7.00;99.90
59007;DHT22;44792;52.760;6.726;2023-02-13T07:00:08;7.00;99.90
59007;DHT22;44792;52.760;6.726;2023-02-13T07:02:36;7.00;99.90
59007;DHT22;44792;52.760;6.726;2023-02-13T07:05:02;7.10;99.90
59007;DHT22;44792;52.760;6.726;2023-02-13T07:07:32;7.00;99.90
59007;DHT22;44792;52.760;6.726;2023-02-13T07:09:58;7.00;99.90
59007;DHT22;44792;52.760;6.726;2023-02-13T07:12:24;7.10;99.90
59007;DHT22;44792;52.760;6.726;2023-02-13T07:14:49;7.10;99.90
59007;DHT22;44792;52.760;6.726;2023-02-13T07:17:15;7.10;99.90
59007;DHT22;44792;52.760;6.726;2023-02-13T07:19:41;7.20;99.90
59007;DHT22;44792;52.760;6.726;2023-02-13T07:22:06;7.10;99.90
59007;DHT22;44792;52.760;6.726;2023-02-13T07:24:32;7.20;99.90
59007;DHT22;44792;52.760;6.726;2023-02-13T07:27:00;7.20;99.90
59007;DHT22;44792;52.760;6.726;2023-02-13T07:29:25;7.10;99.90
59007;DHT22;44792;52.760;6.726;2023-02-13T07:31:51;7.10;99.90
59007;DHT22;44792;52.760;6.726;2023-02-13T07:34:17;7.10;99.90
59007;DHT22;44792;52.760;6.726;2023-02-13T07:36:42;7.20;99.90
59007;DHT22;44792;52.760;6.726;2023-02-13T07:39:08;7.10;99.90
59007;DHT22;44792;52.760;6.726;2023-02-13T07:41:33;7.10;99.90
59007;DHT22;44792;52.760;6.726;2023-02-13T07:43:59;7.10;99.90
59007;DHT22;44792;52.760;6.726;2023-02-13T07:46:24;7.20;99.90
59007;DHT22;44792;52.760;6.726;2023-02-13T07:48:53;7.20;99.90
59007;DHT22;44792;52.760;6.726;2023-02-13T07:51:19;7.20;99.90
59007;DHT22;44792;52.760;6.726;2023-02-13T07:53:45;7.20;99.90
59007;DHT22;44792;52.760;6.726;2023-02-13T07:56:10;7.20;99.90
59007;DHT22;44792;52.760;6.726;2023-02-13T07:58:36;7.30;99.90
59007;DHT22;44792;52.760;6.726;2023-02-13T08:01:09;7.30;99.90
59007;DHT22;44792;52.760;6.726;2023-02-13T08:03:35;7.30;99.90
59007;DHT22;44792;52.760;6.726;2023-02-13T08:06:01;7.30;99.90
59007;DHT22;44792;52.760;6.726;2023-02-13T08:08:27;7.30;99.90
59007;DHT22;44792;52.760;6.726;2023-02-13T08:10:53;7.30;99.90
59007;DHT22;44792;52.760;6.726;2023-02-13T08:13:38;7.30;99.90
59007;DHT22;44792;52.760;6.726;2023-02-13T08:16:04;7.40;99.90
59007;DHT22;44792;52.760;6.726;2023-02-13T08:18:29;7.40;99.90
59007;DHT22;44792;52.760;6.726;2023-02-13T08:20:55;7.40;99.90
59007;DHT22;44792;52.760;6.726;2023-02-13T08:23:20;7.40;99.90
59007;DHT22;44792;52.760;6.726;2023-02-13T08:25:46;7.40;99.90
59007;DHT22;44792;52.760;6.726;2023-02-13T08:28:14;7.40;99.90
59007;DHT22;44792;52.760;6.726;2023-02-13T08:30:39;7.40;99.90
59007;DHT22;44792;52.760;6.726;2023-02-13T08:33:05;7.40;99.90
59007;DHT22;44792;52.760;6.726;2023-02-13T08:35:31;7.40;99.90
59007;DHT22;44792;52.760;6.726;2023-02-13T08:38:00;7.50;99.90
59007;DHT22;44792;52.760;6.726;2023-02-13T08:40:25;7.50;99.90
59007;DHT22;44792;52.760;6.726;2023-02-13T08:42:51;7.50;99.90
59007;DHT22;44792;52.760;6.726;2023-02-13T08:45:16;7.50;99.90
59007;DHT22;44792;52.760;6.726;2023-02-13T08:47:42;7.50;99.90
59007;DHT22;44792;52.760;6.726;2023-02-13T08:50:08;7.50;99.90
59007;DHT22;44792;52.760;6.726;2023-02-13T08:52:34;7.50;99.90
59007;DHT22;44792;52.760;6.726;2023-02-13T08:55:00;7.60;99.90
59007;DHT22;44792;52.760;6.726;2023-02-13T08:57:27;7.60;99.90
59007;DHT22;44792;52.760;6.726;2023-02-13T08:59:53;7.60;99.90
59007;DHT22;44792;52.760;6.726;2023-02-13T09:02:18;7.60;99.90
59007;DHT22;44792;52.760;6.726;2023-02-13T09:04:44;7.60;99.90
59007;DHT22;44792;52.760;6.726;2023-02-13T09:07:09;7.60;99.90
59007;DHT22;44792;52.760;6.726;2023-02-13T09:09:35;7.60;99.90
59007;DHT22;44792;52.760;6.726;2023-02-13T09:12:01;7.80;99.90
59007;DHT22;44792;52.760;6.726;2023-02-13T09:14:26;8.30;99.90
59007;DHT22;44792;52.760;6.726;2023-02-13T09:16:52;9.20;99.90
59007;DHT22;44792;52.760;6.726;2023-02-13T09:19:17;8.80;99.90
59007;DHT22;44792;52.760;6.726;2023-02-13T09:21:43;8.50;99.90
59007;DHT22;44792;52.760;6.726;2023-02-13T09:24:09;8.40;99.90
59007;DHT22;44792;52.760;6.726;2023-02-13T09:26:35;8.40;99.90
59007;DHT22;44792;52.760;6.726;2023-02-13T09:29:00;8.30;99.90
59007;DHT22;44792;52.760;6.726;2023-02-13T09:31:26;8.30;99.90
59007;DHT22;44792;52.760;6.726;2023-02-13T09:33:52;8.30;99.90
59007;DHT22;44792;52.760;6.726;2023-02-13T09:36:22;8.30;99.90
59007;DHT22;44792;52.760;6.726;2023-02-13T09:38:52;8.30;99.90
59007;DHT22;44792;52.760;6.726;2023-02-13T09:41:21;8.30;99.90
59007;DHT22;44792;52.760;6.726;2023-02-13T09:43:54;8.30;99.90
59007;DHT22;44792;52.760;6.726;2023-02-13T09:46:33;8.40;99.90
59007;DHT22;44792;52.760;6.726;2023-02-13T09:49:12;8.40;99.90
59007;DHT22;44792;52.760;6.726;2023-02-13T09:51:44;8.40;99.90
59007;DHT22;44792;52.760;6.726;2023-02-13T09:54:14;8.40;99.90
59007;DHT22;44792;52.760;6.726;2023-02-13T09:56:55;8.30;99.90
59007;DHT22;44792;52.760;6.726;2023-02-13T09:59:55;8.30;99.90
59007;DHT22;44792;52.760;6.726;2023-02-13T10:02:40;8.40;99.90
59007;DHT22;44792;52.760;6.726;2023-02-13T10:14:10;8.40;99.90
59007;DHT22;44792;52.760;6.726;2023-02-13T10:22:17;8.40;99.90
59007;DHT22;44792;52.760;6.726;2023-02-13T10:24:47;8.50;99.90
59007;DHT22;44792;52.760;6.726;2023-02-13T10:27:23;8.50;99.90
59007;DHT22;44792;52.760;6.726;2023-02-13T10:29:54;8.50;99.90
59007;DHT22;44792;52.760;6.726;2023-02-13T10:32:41;8.60;99.90
59007;DHT22;44792;52.760;6.726;2023-02-13T10:35:20;8.60;99.90
59007;DHT22;44792;52.760;6.726;2023-02-13T10:37:49;8.60;99.90
59007;DHT22;44792;52.760;6.726;2023-02-13T10:40:17;8.70;99.90
59007;DHT22;44792;52.760;6.726;2023-02-13T10:45:47;8.80;99.90
59007;DHT22;44792;52.760;6.726;2023-02-13T10:56:30;8.90;99.90
59007;DHT22;44792;52.760;6.726;2023-02-13T11:03:57;9.10;99.90
59007;DHT22;44792;52.760;6.726;2023-02-13T11:06:24;9.00;99.90
59007;DHT22;44792;52.760;6.726;2023-02-13T11:08:50;9.00;99.90
59007;DHT22;44792;52.760;6.726;2023-02-13T11:11:34;9.00;99.90
59007;DHT22;44792;52.760;6.726;2023-02-13T11:14:12;9.00;99.90
59007;DHT22;44792;52.760;6.726;2023-02-13T11:16:46;9.00;99.90
59007;DHT22;44792;52.760;6.726;2023-02-13T11:19:38;9.00;99.90
59007;DHT22;44792;52.760;6.726;2023-02-13T11:22:11;9.10;99.90
59007;DHT22;44792;52.760;6.726;2023-02-13T11:24:40;9.10;99.90
59007;DHT22;44792;52.760;6.726;2023-02-13T11:27:08;9.00;99.90
59007;DHT22;44792;52.760;6.726;2023-02-13T11:29:52;9.10;99.90
59007;DHT22;44792;52.760;6.726;2023-02-13T11:32:26;9.10;99.90
59007;DHT22;44792;52.760;6.726;2023-02-13T11:34:52;9.20;99.90
59007;DHT22;44792;52.760;6.726;2023-02-13T11:39:53;9.20;99.90
59007;DHT22;44792;52.760;6.726;2023-02-13T11:44:57;9.20;99.90
59007;DHT22;44792;52.760;6.726;2023-02-13T11:49:59;9.30;99.90
59007;DHT22;44792;52.760;6.726;2023-02-13T11:52:27;9.30;99.90
59007;DHT22;44792;52.760;6.726;2023-02-13T11:55:05;9.30;99.90
59007;DHT22;44792;52.760;6.726;2023-02-13T11:57:59;9.40;99.90
59007;DHT22;44792;52.760;6.726;2023-02-13T12:00:35;9.40;99.90
59007;DHT22;44792;52.760;6.726;2023-02-13T12:06:05;9.40;99.90
59007;DHT22;44792;52.760;6.726;2023-02-13T12:08:36;9.40;99.90
59007;DHT22;44792;52.760;6.726;2023-02-13T12:13:41;9.50;99.90
59007;DHT22;44792;52.760;6.726;2023-02-13T12:16:23;9.50;99.90
59007;DHT22;44792;52.760;6.726;2023-02-13T12:18:53;9.50;99.90
59007;DHT22;44792;52.760;6.726;2023-02-13T12:24:19;9.50;99.90
59007;DHT22;44792;52.760;6.726;2023-02-13T12:26:52;9.60;99.90
59007;DHT22;44792;52.760;6.726;2023-02-13T12:32:54;9.60;99.90
59007;DHT22;44792;52.760;6.726;2023-02-13T12:41:20;9.60;99.90
59007;DHT22;44792;52.760;6.726;2023-02-13T12:47:09;9.60;99.90
59007;DHT22;44792;52.760;6.726;2023-02-13T12:49:54;9.60;99.90
59007;DHT22;44792;52.760;6.726;2023-02-13T12:58:11;9.60;99.90
59007;DHT22;44792;52.760;6.726;2023-02-13T13:09:06;9.60;99.90
59007;DHT22;44792;52.760;6.726;2023-02-13T13:12:00;9.60;99.90
59007;DHT22;44792;52.760;6.726;2023-02-13T13:26:19;9.60;99.90
59007;DHT22;44792;52.760;6.726;2023-02-13T13:28:51;9.60;99.90
59007;DHT22;44792;52.760;6.726;2023-02-13T13:31:18;9.80;99.90
59007;DHT22;44792;52.760;6.726;2023-02-13T13:33:46;9.70;99.90
59007;DHT22;44792;52.760;6.726;2023-02-13T13:39:01;9.70;99.90
59007;DHT22;44792;52.760;6.726;2023-02-13T13:47:11;9.70;99.90
59007;DHT22;44792;52.760;6.726;2023-02-13T13:49:53;9.60;99.90
59007;DHT22;44792;52.760;6.726;2023-02-13T13:52:29;9.60;99.90
59007;DHT22;44792;52.760;6.726;2023-02-13T13:54:58;9.60;99.90
59007;DHT22;44792;52.760;6.726;2023-02-13T13:57:25;9.60;99.90
59007;DHT22;44792;52.760;6.726;2023-02-13T14:05:25;9.50;99.90
59007;DHT22;44792;52.760;6.726;2023-02-13T14:07:57;9.50;99.90
59007;DHT22;44792;52.760;6.726;2023-02-13T14:28:54;9.40;99.90
59007;DHT22;44792;52.760;6.726;2023-02-13T14:31:39;9.50;99.90
59007;DHT22;44792;52.760;6.726;2023-02-13T14:34:35;9.40;99.90
59007;DHT22;44792;52.760;6.726;2023-02-13T14:40:18;9.40;99.90
59007;DHT22;44792;52.760;6.726;2023-02-13T14:43:04;9.40;99.90
59007;DHT22;44792;52.760;6.726;2023-02-13T14:45:39;9.40;99.90
59007;DHT22;44792;52.760;6.726;2023-02-13T14:48:12;9.40;99.90
59007;DHT22;44792;52.760;6.726;2023-02-13T14:50:54;9.40;99.90
59007;DHT22;44792;52.760;6.726;2023-02-13T14:53:32;9.50;99.90
59007;DHT22;44792;52.760;6.726;2023-02-13T14:56:10;9.50;99.90
59007;DHT22;44792;52.760;6.726;2023-02-13T14:58:45;9.60;99.90
59007;DHT22;44792;52.760;6.726;2023-02-13T15:01:31;9.60;99.90
59007;DHT22;44792;52.760;6.726;2023-02-13T15:04:04;9.50;99.90
59007;DHT22;44792;52.760;6.726;2023-02-13T15:06:40;9.60;99.90
59007;DHT22;44792;52.760;6.726;2023-02-13T15:09:33;9.60;99.90
59007;DHT22;44792;52.760;6.726;2023-02-13T15:12:00;9.60;99.90
59007;DHT22;44792;52.760;6.726;2023-02-13T15:14:35;9.60;99.90
59007;DHT22;44792;52.760;6.726;2023-02-13T15:17:30;9.60;99.90
59007;DHT22;44792;52.760;6.726;2023-02-13T15:22:39;9.60;99.90
59007;DHT22;44792;52.760;6.726;2023-02-13T15:25:22;9.60;99.90
59007;DHT22;44792;52.760;6.726;2023-02-13T15:27:51;9.60;99.90
59007;DHT22;44792;52.760;6.726;2023-02-13T15:32:54;9.50;99.90
59007;DHT22;44792;52.760;6.726;2023-02-13T15:35:29;9.50;99.90
59007;DHT22;44792;52.760;6.726;2023-02-13T15:37:55;9.50;99.90
59007;DHT22;44792;52.760;6.726;2023-02-13T15:40:32;9.50;99.90
59007;DHT22;44792;52.760;6.726;2023-02-13T15:43:01;9.50;99.90
59007;DHT22;44792;52.760;6.726;2023-02-13T15:45:27;9.40;99.90
59007;DHT22;44792;52.760;6.726;2023-02-13T15:47:54;9.40;99.90
59007;DHT22;44792;52.760;6.726;2023-02-13T15:50:34;9.40;99.90
59007;DHT22;44792;52.760;6.726;2023-02-13T15:53:03;9.40;99.90
59007;DHT22;44792;52.760;6.726;2023-02-13T15:55:32;9.40;99.90
59007;DHT22;44792;52.760;6.726;2023-02-13T15:57:59;9.30;99.90
59007;DHT22;44792;52.760;6.726;2023-02-13T16:00:27;9.30;99.90
59007;DHT22;44792;52.760;6.726;2023-02-13T16:02:55;9.30;99.90
59007;DHT22;44792;52.760;6.726;2023-02-13T16:05:23;9.20;99.90
59007;DHT22;44792;52.760;6.726;2023-02-13T16:07:51;9.20;99.90
59007;DHT22;44792;52.760;6.726;2023-02-13T16:10:28;9.10;99.90
59007;DHT22;44792;52.760;6.726;2023-02-13T16:12:57;9.10;99.90
59007;DHT22;44792;52.760;6.726;2023-02-13T16:15:26;9.10;99.90
59007;DHT22;44792;52.760;6.726;2023-02-13T16:17:53;9.00;99.90
59007;DHT22;44792;52.760;6.726;2023-02-13T16:20:22;8.90;99.90
59007;DHT22;44792;52.760;6.726;2023-02-13T16:22:57;8.80;99.90
59007;DHT22;44792;52.760;6.726;2023-02-13T16:25:29;8.80;99.90
59007;DHT22;44792;52.760;6.726;2023-02-13T16:28:01;8.70;99.90
59007;DHT22;44792;52.760;6.726;2023-02-13T16:30:33;8.70;99.90
59007;DHT22;44792;52.760;6.726;2023-02-13T16:35:38;8.50;99.90
59007;DHT22;44792;52.760;6.726;2023-02-13T16:38:19;8.50;99.90
59007;DHT22;44792;52.760;6.726;2023-02-13T16:40:47;8.50;99.90
59007;DHT22;44792;52.760;6.726;2023-02-13T16:43:55;8.40;99.90
59007;DHT22;44792;52.760;6.726;2023-02-13T16:51:40;8.10;99.90
59007;DHT22;44792;52.760;6.726;2023-02-13T16:56:47;8.10;99.90
59007;DHT22;44792;52.760;6.726;2023-02-13T17:01:42;7.90;99.90
59007;DHT22;44792;52.760;6.726;2023-02-13T17:04:34;7.90;99.90
59007;DHT22;44792;52.760;6.726;2023-02-13T17:07:00;7.80;99.90
59007;DHT22;44792;52.760;6.726;2023-02-13T17:09:26;7.70;99.90
59007;DHT22;44792;52.760;6.726;2023-02-13T17:11:52;7.70;99.90
59007;DHT22;44792;52.760;6.726;2023-02-13T17:14:18;7.60;99.90
59007;DHT22;44792;52.760;6.726;2023-02-13T17:16:45;7.60;99.90
59007;DHT22;44792;52.760;6.726;2023-02-13T17:19:11;7.50;99.90
59007;DHT22;44792;52.760;6.726;2023-02-13T17:21:37;7.50;99.90
59007;DHT22;44792;52.760;6.726;2023-02-13T17:24:04;7.40;99.90
59007;DHT22;44792;52.760;6.726;2023-02-13T17:26:30;7.40;99.90
59007;DHT22;44792;52.760;6.726;2023-02-13T17:28:55;7.40;99.90
59007;DHT22;44792;52.760;6.726;2023-02-13T17:31:21;7.30;99.90
59007;DHT22;44792;52.760;6.726;2023-02-13T17:33:47;7.30;99.90
59007;DHT22;44792;52.760;6.726;2023-02-13T17:36:13;7.30;99.90
59007;DHT22;44792;52.760;6.726;2023-02-13T17:38:39;7.20;99.90
59007;DHT22;44792;52.760;6.726;2023-02-13T17:41:08;7.10;99.90
59007;DHT22;44792;52.760;6.726;2023-02-13T17:43:36;7.10;99.90
59007;DHT22;44792;52.760;6.726;2023-02-13T17:46:01;7.00;99.90
59007;DHT22;44792;52.760;6.726;2023-02-13T17:48:28;7.00;99.90
59007;DHT22;44792;52.760;6.726;2023-02-13T17:50:54;6.90;99.90
59007;DHT22;44792;52.760;6.726;2023-02-13T17:53:24;6.90;99.90
59007;DHT22;44792;52.760;6.726;2023-02-13T17:55:50;6.90;99.90
59007;DHT22;44792;52.760;6.726;2023-02-13T17:58:16;6.80;99.90
59007;DHT22;44792;52.760;6.726;2023-02-13T18:00:42;6.90;99.90
59007;DHT22;44792;52.760;6.726;2023-02-13T18:03:07;6.80;99.90
59007;DHT22;44792;52.760;6.726;2023-02-13T18:05:33;6.80;99.90
59007;DHT22;44792;52.760;6.726;2023-02-13T18:07:59;6.80;99.90
59007;DHT22;44792;52.760;6.726;2023-02-13T18:10:29;6.70;99.90
59007;DHT22;44792;52.760;6.726;2023-02-13T18:12:56;6.70;99.90
59007;DHT22;44792;52.760;6.726;2023-02-13T18:15:29;6.70;99.90
59007;DHT22;44792;52.760;6.726;2023-02-13T18:17:54;6.60;99.90
59007;DHT22;44792;52.760;6.726;2023-02-13T18:20:20;6.60;99.90
59007;DHT22;44792;52.760;6.726;2023-02-13T18:22:47;6.50;99.90
59007;DHT22;44792;52.760;6.726;2023-02-13T18:25:15;6.50;99.90
59007;DHT22;44792;52.760;6.726;2023-02-13T18:27:41;6.50;99.90
59007;DHT22;44792;52.760;6.726;2023-02-13T18:30:08;6.50;99.90
59007;DHT22;44792;52.760;6.726;2023-02-13T18:32:34;6.40;99.90
59007;DHT22;44792;52.760;6.726;2023-02-13T18:35:00;6.50;99.90
59007;DHT22;44792;52.760;6.726;2023-02-13T18:37:26;6.50;99.90
59007;DHT22;44792;52.760;6.726;2023-02-13T18:39:54;6.40;99.90
59007;DHT22;44792;52.760;6.726;2023-02-13T18:42:19;6.40;99.90
59007;DHT22;44792;52.760;6.726;2023-02-13T18:44:45;6.40;99.90
59007;DHT22;44792;52.760;6.726;2023-02-13T18:47:10;6.30;99.90
59007;DHT22;44792;52.760;6.726;2023-02-13T18:49:36;6.30;99.90
59007;DHT22;44792;52.760;6.726;2023-02-13T18:52:02;6.30;99.90
59007;DHT22;44792;52.760;6.726;2023-02-13T18:54:28;6.20;99.90
59007;DHT22;44792;52.760;6.726;2023-02-13T18:56:54;6.20;99.90